Time;durP1;ratioP1;P1;durP2;ratioP2;P2;SDS_P1;SDS_P2;PMS_P1;PMS_P2;Temp;Humidity;BMP_temperature;BMP_pressure;BME280_temperature;BME280_humidity;BME280_pressure;Samples;Min_cycle;Max_cycle;Signal;HPM_P1;HPM_P2
2020/12/26 00:02:17;;;;;;;13.00;7.90;;;3.80;99.90;;;;;;5075664;28;20217;-81
2020/12/26 00:04:44;;;;;;;11.15;7.00;;;3.70;99.90;;;;;;5090698;28;20225;-84
2020/12/26 00:07:10;;;;;;;16.20;7.05;;;3.70;99.90;;;;;;5083978;28;20727;-80
2020/12/26 00:09:37;;;;;;;11.55;6.82;;;3.70;99.90;;;;;;5065717;28;20306;-83
2020/12/26 00:12:04;;;;;;;11.50;6.72;;;3.60;99.90;;;;;;5078612;28;20193;-82
2020/12/26 00:14:31;;;;;;;11.85;7.10;;;3.70;99.90;;;;;;5071412;28;20329;-82
2020/12/26 00:16:58;;;;;;;9.82;7.22;;;3.60;99.90;;;;;;5076355;28;20208;-82
2020/12/26 00:19:25;;;;;;;12.80;7.53;;;3.50;99.90;;;;;;5079602;28;20206;-82
2020/12/26 00:21:52;;;;;;;11.55;7.00;;;3.60;99.90;;;;;;5081323;28;20225;-82
2020/12/26 00:24:19;;;;;;;12.43;7.07;;;3.50;99.90;;;;;;5064221;28;20237;-83
2020/12/26 00:26:45;;;;;;;10.90;7.35;;;3.40;99.90;;;;;;5075345;28;20194;-83
2020/12/26 00:29:14;;;;;;;12.30;7.70;;;3.40;99.90;;;;;;5061447;28;20550;-82
2020/12/26 00:31:40;;;;;;;10.90;6.97;;;3.50;99.90;;;;;;5081083;28;20205;-83
2020/12/26 00:34:07;;;;;;;15.63;8.00;;;3.30;99.90;;;;;;5062534;28;20219;-83
2020/12/26 00:36:33;;;;;;;12.68;7.50;;;3.20;99.90;;;;;;5066701;28;20212;-82
2020/12/26 00:39:00;;;;;;;9.45;7.22;;;3.30;99.90;;;;;;5075347;28;20198;-81
2020/12/26 00:41:27;;;;;;;13.75;7.82;;;3.30;99.90;;;;;;5059430;28;20222;-82
2020/12/26 00:43:53;;;;;;;9.85;7.07;;;3.60;99.90;;;;;;5075321;28;20228;-81
2020/12/26 00:46:23;;;;;;;11.50;7.03;;;3.50;99.90;;;;;;5076171;28;20202;-82
2020/12/26 00:48:50;;;;;;;16.10;7.78;;;3.40;99.90;;;;;;5049075;28;20281;-82
2020/12/26 00:51:16;;;;;;;14.68;7.88;;;3.30;99.90;;;;;;5077876;28;20208;-83
2020/12/26 00:53:44;;;;;;;14.77;7.90;;;3.20;99.90;;;;;;5077306;28;20248;-82
2020/12/26 00:56:10;;;;;;;16.33;8.10;;;3.00;99.90;;;;;;5065694;28;20202;-82
2020/12/26 00:58:37;;;;;;;13.55;8.35;;;3.00;99.90;;;;;;5057915;28;20202;-83
2020/12/26 01:01:04;;;;;;;14.40;8.88;;;3.00;99.90;;;;;;5074830;28;20728;-82
2020/12/26 01:03:31;;;;;;;13.52;8.55;;;3.10;99.90;;;;;;5076443;28;20232;-83
2020/12/26 01:05:57;;;;;;;13.25;8.40;;;3.00;99.90;;;;;;5069132;28;20203;-82
2020/12/26 01:08:24;;;;;;;13.80;7.85;;;3.00;99.90;;;;;;5064345;28;20205;-82
2020/12/26 01:10:50;;;;;;;13.07;7.97;;;3.10;99.90;;;;;;5075159;28;20581;-82
2020/12/26 01:13:18;;;;;;;15.13;7.97;;;3.20;99.90;;;;;;5069990;28;20223;-82
2020/12/26 01:15:44;;;;;;;14.40;7.47;;;3.30;99.90;;;;;;5070752;28;20199;-83
2020/12/26 01:18:11;;;;;;;14.00;7.63;;;3.10;99.90;;;;;;5079437;28;20676;-83
2020/12/26 01:20:39;;;;;;;15.95;7.63;;;3.20;99.90;;;;;;5074843;28;20242;-84
2020/12/26 01:23:05;;;;;;;14.35;8.07;;;3.10;99.90;;;;;;5071798;28;20221;-83
2020/12/26 01:25:32;;;;;;;13.25;8.50;;;3.10;99.90;;;;;;5075616;28;20241;-83
2020/12/26 01:27:58;;;;;;;15.25;8.43;;;3.00;99.90;;;;;;5079724;28;20563;-83
2020/12/26 01:30:25;;;;;;;12.80;8.20;;;3.10;99.90;;;;;;5085996;28;20204;-82
2020/12/26 01:32:51;;;;;;;15.57;8.65;;;3.00;99.90;;;;;;5067653;28;20716;-83
2020/12/26 01:35:18;;;;;;;16.20;7.97;;;2.80;99.90;;;;;;5065530;28;20271;-83
2020/12/26 01:37:45;;;;;;;16.73;9.15;;;2.90;99.90;;;;;;5105709;22;20233;-81
2020/12/26 01:40:12;;;;;;;14.55;8.20;;;2.80;99.90;;;;;;5086095;28;20612;-79
2020/12/26 01:42:39;;;;;;;16.20;8.30;;;2.80;99.90;;;;;;5073165;28;20221;-80
2020/12/26 01:45:06;;;;;;;13.52;7.93;;;2.90;99.90;;;;;;5089169;28;20292;-80
2020/12/26 01:47:33;;;;;;;12.40;7.75;;;3.20;99.90;;;;;;5064016;28;20223;-80
2020/12/26 01:50:00;;;;;;;14.93;9.13;;;2.70;99.90;;;;;;5073215;28;20265;-79
2020/12/26 01:52:27;;;;;;;12.95;8.23;;;2.90;99.90;;;;;;5078979;28;20639;-79
2020/12/26 01:54:55;;;;;;;13.23;8.68;;;2.70;99.90;;;;;;5064856;28;20230;-80
2020/12/26 01:57:32;;;;;;;13.50;7.55;;;2.60;99.90;;;;;;5061206;28;20610;-79
2020/12/26 01:59:59;;;;;;;16.30;8.30;;;2.60;99.90;;;;;;5064476;28;20213;-79
2020/12/26 02:02:25;;;;;;;16.73;8.25;;;2.80;99.90;;;;;;5071067;28;20584;-79
2020/12/26 02:04:52;;;;;;;18.20;8.23;;;2.70;99.90;;;;;;5070792;28;20256;-79
2020/12/26 02:07:18;;;;;;;14.48;8.50;;;2.80;99.90;;;;;;5063093;28;20240;-79
2020/12/26 02:09:46;;;;;;;13.43;7.40;;;2.70;99.90;;;;;;5077754;28;20259;-79
2020/12/26 02:12:13;;;;;;;14.27;8.60;;;2.90;99.90;;;;;;5067316;28;20804;-79
2020/12/26 02:14:45;;;;;;;16.98;8.48;;;2.90;99.90;;;;;;5069315;28;20201;-79
2020/12/26 02:17:12;;;;;;;15.63;7.53;;;2.70;99.90;;;;;;5079534;28;20640;-80
2020/12/26 02:19:38;;;;;;;21.08;9.68;;;3.00;99.90;;;;;;5080938;28;20202;-80
2020/12/26 02:22:05;;;;;;;15.55;9.45;;;3.10;99.90;;;;;;5073224;28;20237;-79
2020/12/26 02:24:32;;;;;;;17.08;8.63;;;2.90;99.90;;;;;;5055138;28;20211;-78
2020/12/26 02:26:59;;;;;;;18.92;8.35;;;3.20;99.90;;;;;;5059016;28;20281;-79
2020/12/26 02:29:25;;;;;;;18.15;9.40;;;3.00;99.90;;;;;;5070826;28;20198;-79
2020/12/26 02:31:52;;;;;;;14.82;9.75;;;2.90;99.90;;;;;;5071174;28;20205;-80
2020/12/26 02:34:18;;;;;;;16.08;9.73;;;3.10;99.90;;;;;;5064921;28;20206;-80
2020/12/26 02:36:45;;;;;;;17.17;9.45;;;2.90;99.90;;;;;;5071855;28;20295;-80
2020/12/26 02:39:11;;;;;;;15.70;9.80;;;2.90;99.90;;;;;;5055391;28;20213;-80
2020/12/26 02:41:39;;;;;;;11.57;7.30;;;3.30;99.90;;;;;;5052914;28;20676;-80
2020/12/26 02:44:06;;;;;;;14.07;7.85;;;3.20;99.90;;;;;;5065412;28;20670;-80
2020/12/26 02:46:32;;;;;;;15.05;8.55;;;3.10;99.90;;;;;;5072018;28;20240;-80
2020/12/26 02:48:59;;;;;;;18.40;8.85;;;3.20;99.90;;;;;;5059786;28;20229;-79
2020/12/26 02:51:25;;;;;;;14.10;7.65;;;3.00;99.90;;;;;;5062496;28;20251;-80
2020/12/26 02:53:52;;;;;;;18.80;8.95;;;2.90;99.90;;;;;;5053576;28;20209;-84
2020/12/26 02:56:19;;;;;;;15.02;8.45;;;3.00;99.90;;;;;;5054797;28;20733;-80
2020/12/26 02:58:46;;;;;;;15.52;9.35;;;3.00;99.90;;;;;;5075313;28;20206;-79
2020/12/26 03:01:13;;;;;;;20.73;10.35;;;2.80;99.90;;;;;;5066321;28;20222;-80
2020/12/26 03:03:39;;;;;;;19.88;10.15;;;2.90;99.90;;;;;;5064675;28;20698;-80
2020/12/26 03:06:06;;;;;;;17.15;8.63;;;2.90;99.90;;;;;;5065759;28;20213;-80
2020/12/26 03:08:32;;;;;;;15.43;8.88;;;2.80;99.90;;;;;;5071128;28;20214;-80
2020/12/26 03:10:59;;;;;;;17.05;9.02;;;2.80;99.90;;;;;;5061259;28;20214;-80
2020/12/26 03:13:29;;;;;;;17.10;8.40;;;2.70;99.90;;;;;;5077968;28;20562;-80
2020/12/26 03:15:57;;;;;;;15.07;8.77;;;2.80;99.90;;;;;;5080130;28;20206;-80
2020/12/26 03:18:23;;;;;;;15.48;9.32;;;3.10;99.90;;;;;;5079272;28;20205;-80
2020/12/26 03:20:50;;;;;;;14.40;8.23;;;3.30;99.90;;;;;;5072015;28;20206;-80
2020/12/26 03:23:16;;;;;;;15.18;9.05;;;3.10;99.90;;;;;;5068242;28;20194;-80
2020/12/26 03:25:43;;;;;;;12.50;8.25;;;3.10;99.90;;;;;;5073625;28;20198;-80
2020/12/26 03:28:09;;;;;;;15.48;8.80;;;3.10;99.90;;;;;;5074292;28;20230;-80
2020/12/26 03:30:36;;;;;;;14.32;7.40;;;2.90;99.90;;;;;;5079218;28;20212;-80
2020/12/26 03:33:03;;;;;;;16.83;9.00;;;2.90;99.90;;;;;;5070653;28;20210;-80
2020/12/26 03:35:30;;;;;;;15.27;8.73;;;2.80;99.90;;;;;;5061123;28;20620;-80
2020/12/26 03:37:57;;;;;;;16.15;9.00;;;3.00;99.90;;;;;;5071420;28;20283;-80
2020/12/26 03:40:23;;;;;;;14.10;8.43;;;2.90;99.90;;;;;;5078609;28;20303;-80
2020/12/26 03:42:50;;;;;;;15.73;8.60;;;3.20;99.90;;;;;;5083470;28;20225;-80
2020/12/26 03:45:16;;;;;;;18.00;8.57;;;2.90;99.90;;;;;;5082642;28;20209;-80
2020/12/26 03:47:43;;;;;;;19.38;9.50;;;2.70;99.90;;;;;;5078830;28;20226;-80
2020/12/26 03:50:10;;;;;;;17.85;10.98;;;3.00;99.90;;;;;;5078705;28;20285;-80
2020/12/26 03:52:37;;;;;;;16.13;9.35;;;2.80;99.90;;;;;;5078738;28;20206;-80
2020/12/26 03:55:03;;;;;;;14.10;9.50;;;2.80;99.90;;;;;;5078270;28;20206;-80
2020/12/26 03:57:30;;;;;;;14.45;8.60;;;2.90;99.90;;;;;;5079067;28;20237;-80
2020/12/26 03:59:56;;;;;;;22.48;8.52;;;2.80;99.90;;;;;;5077650;28;20209;-80
2020/12/26 04:02:23;;;;;;;17.55;9.35;;;2.90;99.90;;;;;;5081560;28;20218;-80
2020/12/26 04:04:49;;;;;;;17.42;10.40;;;3.10;99.90;;;;;;5080827;28;20206;-80
2020/12/26 04:07:17;;;;;;;13.30;8.13;;;3.00;99.90;;;;;;5085767;28;20256;-80
2020/12/26 04:09:43;;;;;;;15.82;8.73;;;3.00;99.90;;;;;;5089306;28;20205;-80
2020/12/26 04:12:10;;;;;;;16.65;8.73;;;2.90;99.90;;;;;;5089520;28;20201;-80
2020/12/26 04:14:36;;;;;;;14.15;8.15;;;2.90;99.90;;;;;;5088292;28;20696;-79
2020/12/26 04:17:03;;;;;;;20.92;8.80;;;3.10;99.90;;;;;;5089442;28;20257;-80
2020/12/26 04:19:29;;;;;;;15.40;9.32;;;3.00;99.90;;;;;;5085207;28;20236;-80
2020/12/26 04:21:56;;;;;;;14.25;8.15;;;2.80;99.90;;;;;;5081872;28;20279;-80
2020/12/26 04:24:24;;;;;;;16.08;8.27;;;2.90;99.90;;;;;;5082489;28;20205;-80
2020/12/26 04:26:50;;;;;;;16.77;8.60;;;2.70;99.90;;;;;;5081594;28;20226;-80
2020/12/26 04:29:21;;;;;;;17.52;9.63;;;2.70;99.90;;;;;;5080947;28;20560;-80
2020/12/26 04:31:48;;;;;;;16.40;8.15;;;2.70;99.90;;;;;;5081595;28;20209;-80
2020/12/26 04:34:14;;;;;;;26.88;11.23;;;2.80;99.90;;;;;;5082186;28;20202;-80
2020/12/26 04:36:41;;;;;;;20.30;8.98;;;2.70;99.90;;;;;;5085219;28;20226;-80
2020/12/26 04:39:08;;;;;;;15.65;7.80;;;3.20;99.90;;;;;;5086727;28;20229;-80
2020/12/26 04:41:35;;;;;;;16.92;9.25;;;2.90;99.90;;;;;;5084673;28;20222;-80
2020/12/26 04:44:02;;;;;;;18.98;9.45;;;2.90;99.90;;;;;;5081765;28;20676;-80
2020/12/26 04:46:29;;;;;;;16.83;8.07;;;2.90;99.90;;;;;;5079942;28;20653;-80
2020/12/26 04:49:04;;;;;;;13.95;8.18;;;3.00;99.90;;;;;;5080066;28;20682;-80
2020/12/26 04:51:35;;;;;;;15.52;8.70;;;3.20;99.90;;;;;;5080937;28;20220;-80
2020/12/26 04:54:19;;;;;;;16.10;8.52;;;3.10;99.90;;;;;;5080866;28;20216;-80
2020/12/26 04:56:49;;;;;;;17.95;9.27;;;3.10;99.90;;;;;;5080015;28;20222;-80
2020/12/26 04:59:16;;;;;;;16.50;9.00;;;3.00;99.90;;;;;;5080186;28;20201;-80
2020/12/26 05:01:42;;;;;;;17.63;8.30;;;3.00;99.90;;;;;;5080714;28;20230;-80
2020/12/26 05:04:10;;;;;;;14.75;7.80;;;3.10;99.90;;;;;;5080330;28;20217;-80
2020/12/26 05:06:48;;;;;;;18.13;8.40;;;3.30;99.90;;;;;;5077947;28;20728;-80
2020/12/26 05:09:16;;;;;;;17.33;9.23;;;3.20;99.90;;;;;;5061804;28;20201;-80
2020/12/26 05:11:51;;;;;;;13.35;8.35;;;3.40;99.90;;;;;;5072593;28;20295;-80
2020/12/26 05:14:18;;;;;;;12.75;7.05;;;3.50;99.90;;;;;;5072930;28;20208;-80
2020/12/26 05:16:44;;;;;;;14.38;7.97;;;3.20;99.90;;;;;;5070403;28;20237;-80
2020/12/26 05:19:11;;;;;;;15.32;8.90;;;3.30;99.90;;;;;;5072603;28;20202;-80
2020/12/26 05:21:38;;;;;;;16.40;8.70;;;3.40;99.90;;;;;;5072366;28;20725;-80
2020/12/26 05:24:06;;;;;;;19.17;9.60;;;3.10;99.90;;;;;;5072782;28;20202;-80
2020/12/26 05:26:41;;;;;;;18.38;8.88;;;3.20;99.90;;;;;;5072100;28;20222;-80
2020/12/26 05:29:10;;;;;;;15.43;8.35;;;3.40;99.90;;;;;;5072957;28;20205;-80
2020/12/26 05:31:48;;;;;;;14.52;7.93;;;3.20;99.90;;;;;;5073271;28;20210;-80
2020/12/26 05:34:15;;;;;;;14.68;8.70;;;3.30;99.90;;;;;;5072941;28;20205;-80
2020/12/26 05:36:42;;;;;;;16.02;8.00;;;3.30;99.90;;;;;;5072721;28;20234;-80
2020/12/26 05:39:11;;;;;;;15.55;9.63;;;3.40;99.90;;;;;;5067558;28;20276;-80
2020/12/26 05:41:40;;;;;;;14.18;9.45;;;3.40;99.90;;;;;;5053776;28;20233;-80
2020/12/26 05:44:06;;;;;;;16.55;9.20;;;3.40;99.90;;;;;;5073365;28;20231;-80
2020/12/26 05:46:34;;;;;;;19.20;10.45;;;3.20;99.90;;;;;;5072195;28;20707;-80
2020/12/26 05:49:22;;;;;;;15.63;9.18;;;3.50;99.90;;;;;;5073217;28;20206;-80
2020/12/26 05:51:52;;;;;;;18.48;8.45;;;3.60;99.90;;;;;;5073512;28;20247;-80
2020/12/26 05:54:19;;;;;;;17.25;8.73;;;3.20;99.90;;;;;;5073983;28;20201;-78
2020/12/26 05:56:46;;;;;;;18.48;8.95;;;3.40;99.90;;;;;;5071862;28;20226;-79
2020/12/26 05:59:26;;;;;;;18.83;9.60;;;3.30;99.90;;;;;;5071319;28;20205;-78
2020/12/26 06:01:56;;;;;;;21.67;11.30;;;3.00;99.90;;;;;;5070975;28;20248;-78
2020/12/26 06:04:23;;;;;;;20.60;9.73;;;3.10;99.90;;;;;;5071804;28;20201;-78
2020/12/26 06:06:52;;;;;;;17.40;9.93;;;3.10;99.90;;;;;;5071811;28;20237;-81
2020/12/26 06:09:20;;;;;;;20.30;10.32;;;3.20;99.90;;;;;;5071525;28;20201;-78
2020/12/26 06:11:47;;;;;;;20.45;10.27;;;2.90;99.90;;;;;;5072544;28;20228;-81
2020/12/26 06:14:19;;;;;;;18.17;10.95;;;2.90;99.90;;;;;;5070545;28;20275;-78
2020/12/26 06:16:50;;;;;;;16.45;9.73;;;2.60;99.90;;;;;;5070627;28;20229;-81
2020/12/26 06:19:20;;;;;;;17.75;10.07;;;2.70;99.90;;;;;;5070416;28;20209;-78
2020/12/26 06:21:50;;;;;;;20.15;10.98;;;2.80;99.90;;;;;;5069670;28;20222;-78
2020/12/26 06:24:17;;;;;;;19.98;10.45;;;2.80;99.90;;;;;;5075107;28;20209;-78
2020/12/26 06:26:46;;;;;;;18.50;10.60;;;2.80;99.90;;;;;;5073673;28;20228;-78
2020/12/26 06:29:16;;;;;;;19.20;10.75;;;2.50;99.90;;;;;;5074040;28;20609;-79
2020/12/26 06:31:46;;;;;;;20.75;10.90;;;2.60;99.90;;;;;;5064278;28;20226;-79
2020/12/26 06:34:13;;;;;;;19.50;9.88;;;2.60;99.90;;;;;;5064839;28;20224;-79
2020/12/26 06:36:41;;;;;;;18.90;10.43;;;2.70;99.90;;;;;;5070226;28;20233;-78
2020/12/26 06:39:27;;;;;;;20.02;10.82;;;2.70;99.90;;;;;;5059936;28;20205;-81
2020/12/26 06:42:14;;;;;;;21.38;10.48;;;3.10;99.90;;;;;;5078120;28;20226;-79
2020/12/26 06:44:43;;;;;;;17.88;9.98;;;3.00;99.90;;;;;;5070279;28;20226;-77
2020/12/26 06:47:29;;;;;;;25.38;10.50;;;3.00;99.90;;;;;;5072506;28;20229;-81
2020/12/26 06:50:16;;;;;;;19.13;9.77;;;2.90;99.90;;;;;;5079516;28;20209;-80
2020/12/26 06:52:44;;;;;;;21.73;10.55;;;2.80;99.90;;;;;;5080071;28;20208;-80
2020/12/26 06:55:30;;;;;;;16.27;10.32;;;2.60;99.90;;;;;;5080283;28;20201;-81
2020/12/26 06:57:57;;;;;;;19.23;10.40;;;2.50;99.90;;;;;;5082947;28;20252;-81
2020/12/26 07:00:30;;;;;;;20.55;11.30;;;2.50;99.90;;;;;;5080273;28;20198;-81
2020/12/26 07:03:16;;;;;;;21.30;10.32;;;2.50;99.90;;;;;;5068558;28;20214;-81
2020/12/26 07:05:43;;;;;;;20.23;11.48;;;2.60;99.90;;;;;;5063241;28;20206;-80
2020/12/26 07:08:23;;;;;;;18.48;10.63;;;2.40;99.90;;;;;;5080977;28;20233;-80
2020/12/26 07:10:50;;;;;;;28.30;12.00;;;2.60;99.90;;;;;;5084282;28;20217;-81
2020/12/26 07:13:45;;;;;;;19.80;10.68;;;2.50;99.90;;;;;;5084324;28;20201;-80
2020/12/26 07:16:34;;;;;;;23.30;11.10;;;2.50;99.90;;;;;;5089372;28;20274;-80
2020/12/26 07:19:29;;;;;;;22.10;12.05;;;2.70;99.90;;;;;;5090477;28;20213;-81
2020/12/26 07:21:57;;;;;;;19.17;9.90;;;2.60;99.90;;;;;;5069458;28;20249;-81
2020/12/26 07:24:31;;;;;;;19.42;9.98;;;2.70;99.90;;;;;;5086071;28;20210;-80
2020/12/26 07:27:13;;;;;;;20.83;10.48;;;2.90;99.90;;;;;;5083630;28;20279;-80
2020/12/26 07:30:08;;;;;;;20.30;10.88;;;2.80;99.90;;;;;;5086734;28;20229;-80
2020/12/26 07:32:52;;;;;;;26.85;11.70;;;2.80;99.90;;;;;;5087583;28;20252;-81
2020/12/26 07:35:34;;;;;;;22.98;11.32;;;2.60;99.90;;;;;;5082585;28;20278;-74
2020/12/26 07:38:06;;;;;;;20.17;10.85;;;2.50;99.90;;;;;;5068208;28;20233;-80
2020/12/26 07:40:35;;;;;;;21.48;10.85;;;2.60;99.90;;;;;;5073516;28;20210;-79
2020/12/26 07:43:03;;;;;;;18.88;9.65;;;2.60;99.90;;;;;;5071957;28;20214;-79
2020/12/26 07:45:31;;;;;;;28.50;11.55;;;2.60;99.90;;;;;;5075511;28;20666;-79
2020/12/26 07:47:59;;;;;;;20.55;11.30;;;2.70;99.90;;;;;;5075816;28;20229;-74
2020/12/26 07:50:27;;;;;;;17.90;9.13;;;2.50;99.90;;;;;;5072566;28;20206;-74
2020/12/26 07:52:56;;;;;;;21.30;11.05;;;2.80;99.90;;;;;;5073094;28;20603;-77
2020/12/26 07:55:23;;;;;;;16.33;9.23;;;2.60;99.90;;;;;;5072893;28;20202;-77
2020/12/26 07:58:00;;;;;;;18.63;9.55;;;2.80;99.90;;;;;;5074349;28;20271;-80
2020/12/26 08:00:29;;;;;;;23.55;10.52;;;2.80;99.90;;;;;;5074870;28;20293;-80
2020/12/26 08:02:56;;;;;;;17.75;9.77;;;2.90;99.90;;;;;;5074049;28;20688;-80
2020/12/26 08:05:25;;;;;;;16.85;9.57;;;2.70;99.90;;;;;;5076359;28;20228;-81
2020/12/26 08:07:52;;;;;;;19.42;8.95;;;3.00;99.90;;;;;;5074515;28;20271;-79
2020/12/26 08:10:19;;;;;;;19.10;9.60;;;2.90;99.90;;;;;;5075570;28;20205;-81
2020/12/26 08:12:55;;;;;;;18.25;9.57;;;2.80;99.90;;;;;;5075260;28;20687;-81
2020/12/26 08:15:26;;;;;;;18.85;8.38;;;3.00;99.90;;;;;;5076508;28;20206;-81
2020/12/26 08:17:55;;;;;;;20.92;11.60;;;2.90;99.90;;;;;;5084564;28;20242;-81
2020/12/26 08:20:23;;;;;;;18.20;9.75;;;3.10;99.90;;;;;;5085605;28;20205;-82
2020/12/26 08:22:49;;;;;;;24.10;10.45;;;3.10;99.90;;;;;;5084909;28;20217;-79
2020/12/26 08:25:20;;;;;;;15.10;9.15;;;3.20;99.90;;;;;;5085226;28;20281;-81
2020/12/26 08:27:47;;;;;;;17.23;9.95;;;3.10;99.90;;;;;;5081248;28;20244;-80
2020/12/26 08:30:16;;;;;;;15.68;8.63;;;3.10;99.90;;;;;;5083104;28;20232;-80
2020/12/26 08:32:54;;;;;;;14.82;8.73;;;3.10;99.90;;;;;;5081463;28;20209;-79
2020/12/26 08:35:24;;;;;;;17.83;8.10;;;3.00;99.90;;;;;;5083043;28;20224;-79
2020/12/26 08:38:00;;;;;;;15.18;8.07;;;3.00;99.90;;;;;;5081401;28;20233;-79
2020/12/26 08:40:27;;;;;;;20.45;9.77;;;3.10;99.90;;;;;;5081342;28;20225;-79
2020/12/26 08:42:54;;;;;;;18.48;10.23;;;3.10;99.90;;;;;;5080893;28;20249;-79
2020/12/26 08:45:27;;;;;;;16.27;9.20;;;3.10;99.90;;;;;;5080249;28;20265;-77
2020/12/26 08:47:55;;;;;;;16.20;10.25;;;3.10;99.90;;;;;;5077710;28;20221;-77
2020/12/26 08:50:22;;;;;;;18.90;9.73;;;3.30;99.90;;;;;;5075039;28;20656;-78
2020/12/26 08:53:02;;;;;;;14.45;8.60;;;3.10;99.90;;;;;;5075863;28;20236;-77
2020/12/26 08:55:29;;;;;;;17.90;9.57;;;3.30;99.90;;;;;;5073613;28;20201;-77
2020/12/26 08:57:58;;;;;;;20.98;9.50;;;3.20;99.90;;;;;;5072429;28;20229;-77
2020/12/26 09:00:26;;;;;;;14.15;9.82;;;3.50;99.90;;;;;;5065839;28;20316;-74
2020/12/26 09:02:54;;;;;;;20.85;10.43;;;3.30;99.90;;;;;;5070968;28;20748;-75
2020/12/26 09:05:26;;;;;;;16.98;10.25;;;3.30;99.90;;;;;;5071674;28;20213;-74
2020/12/26 09:08:07;;;;;;;22.55;8.90;;;3.40;99.90;;;;;;5070238;28;20699;-73
2020/12/26 09:10:34;;;;;;;18.45;9.10;;;3.70;99.90;;;;;;5071235;28;20579;-74
2020/12/26 09:13:03;;;;;;;13.13;8.77;;;3.70;99.90;;;;;;5070658;28;20308;-75
2020/12/26 09:15:54;;;;;;;17.90;8.38;;;3.60;99.90;;;;;;5072152;28;20672;-81
2020/12/26 09:18:22;;;;;;;16.60;9.27;;;3.70;99.90;;;;;;5084492;28;20240;-80
2020/12/26 09:20:54;;;;;;;16.85;8.38;;;3.90;99.90;;;;;;5086977;28;20751;-80
2020/12/26 09:23:22;;;;;;;12.65;8.35;;;3.90;99.90;;;;;;5089864;28;20553;-79
2020/12/26 09:25:49;;;;;;;13.45;8.55;;;4.10;99.90;;;;;;5073069;28;20286;-75
2020/12/26 09:28:16;;;;;;;15.27;8.65;;;4.20;99.90;;;;;;5071189;28;20241;-75
2020/12/26 09:30:43;;;;;;;15.27;8.57;;;4.00;99.90;;;;;;5071025;28;20270;-75
2020/12/26 09:33:10;;;;;;;16.80;9.02;;;4.30;99.90;;;;;;5070283;28;20224;-75
2020/12/26 09:35:37;;;;;;;14.60;8.38;;;4.50;99.90;;;;;;5070771;28;20641;-75
2020/12/26 09:38:04;;;;;;;13.05;8.60;;;4.50;99.90;;;;;;5075483;28;20331;-80
2020/12/26 09:40:32;;;;;;;13.25;8.45;;;4.50;99.90;;;;;;5093326;28;20589;-79
2020/12/26 09:42:59;;;;;;;14.07;8.23;;;4.40;99.90;;;;;;5082740;28;20222;-79
2020/12/26 09:45:26;;;;;;;14.52;7.72;;;4.20;99.90;;;;;;5079801;28;20281;-79
2020/12/26 09:47:55;;;;;;;10.55;7.57;;;4.50;99.90;;;;;;5081010;28;20832;-79
2020/12/26 09:50:23;;;;;;;14.85;7.25;;;4.40;99.90;;;;;;5056376;28;20669;-78
2020/12/26 09:52:49;;;;;;;13.70;7.88;;;4.50;99.90;;;;;;5059131;28;20568;-78
2020/12/26 09:55:16;;;;;;;11.07;7.40;;;4.60;99.90;;;;;;5054559;28;20210;-77
2020/12/26 09:57:43;;;;;;;17.98;7.25;;;4.60;99.90;;;;;;5061815;28;20308;-77
2020/12/26 10:00:10;;;;;;;11.80;7.10;;;4.70;99.90;;;;;;5075452;28;20308;-77
2020/12/26 10:02:37;;;;;;;11.20;6.88;;;4.80;99.90;;;;;;5074164;28;20715;-78
2020/12/26 10:05:04;;;;;;;11.43;6.97;;;4.80;99.90;;;;;;5074998;28;20210;-77
2020/12/26 10:07:35;;;;;;;12.52;7.07;;;4.70;99.90;;;;;;5083203;28;20233;-79
2020/12/26 10:10:01;;;;;;;19.38;7.80;;;4.80;99.90;;;;;;5084672;28;20206;-80
2020/12/26 10:12:28;;;;;;;12.95;5.93;;;4.80;99.90;;;;;;5084953;28;20198;-80
2020/12/26 10:14:55;;;;;;;9.32;6.47;;;4.80;99.90;;;;;;5084525;28;20216;-79
2020/12/26 10:17:22;;;;;;;12.32;5.75;;;5.20;99.90;;;;;;5084665;28;20256;-79
2020/12/26 10:19:48;;;;;;;10.70;6.18;;;5.30;99.90;;;;;;5084791;28;20214;-79
2020/12/26 10:22:15;;;;;;;7.90;5.28;;;5.20;99.90;;;;;;5085372;28;20210;-79
2020/12/26 10:24:42;;;;;;;7.47;5.38;;;5.20;99.90;;;;;;5085660;28;20235;-79
2020/12/26 10:27:09;;;;;;;9.85;6.13;;;5.30;99.90;;;;;;5085350;28;20238;-80
2020/12/26 10:29:35;;;;;;;7.68;4.47;;;5.30;99.90;;;;;;5078878;28;20240;-81
2020/12/26 10:32:04;;;;;;;10.05;7.22;;;5.40;99.90;;;;;;5082395;28;20202;-80
2020/12/26 10:34:31;;;;;;;9.73;5.53;;;5.50;99.90;;;;;;5084310;28;20273;-79
2020/12/26 10:36:57;;;;;;;8.88;5.55;;;5.40;99.90;;;;;;5082910;28;20275;-80
2020/12/26 10:39:24;;;;;;;11.43;6.03;;;5.40;99.90;;;;;;5083000;28;20201;-81
2020/12/26 10:41:51;;;;;;;12.35;6.45;;;5.60;99.90;;;;;;5087203;28;20224;-81
2020/12/26 10:44:18;;;;;;;8.23;5.20;;;5.40;99.90;;;;;;5087073;28;20198;-82
2020/12/26 10:46:45;;;;;;;10.23;4.47;;;5.50;99.90;;;;;;5087571;28;20277;-81
2020/12/26 10:49:11;;;;;;;8.82;4.40;;;5.60;99.90;;;;;;5086525;28;20201;-81
2020/12/26 10:51:38;;;;;;;7.63;4.63;;;5.70;99.90;;;;;;5083313;28;20217;-80
2020/12/26 10:54:04;;;;;;;5.75;4.55;;;5.60;99.90;;;;;;5075380;28;20780;-76
2020/12/26 10:56:31;;;;;;;7.35;4.35;;;5.60;99.90;;;;;;5066991;28;20225;-76
2020/12/26 10:58:58;;;;;;;12.13;4.85;;;5.50;99.90;;;;;;5069120;28;20209;-75
2020/12/26 11:01:32;;;;;;;8.30;4.82;;;5.70;99.90;;;;;;5069556;28;20202;-76
2020/12/26 11:03:59;;;;;;;6.40;4.20;;;5.70;99.90;;;;;;5070212;28;20222;-76
2020/12/26 11:06:25;;;;;;;9.50;5.00;;;5.60;99.90;;;;;;5069622;28;20222;-78
2020/12/26 11:08:52;;;;;;;9.40;4.40;;;5.90;99.90;;;;;;5069303;28;20285;-77
2020/12/26 11:11:19;;;;;;;8.43;5.00;;;5.90;99.90;;;;;;5069540;28;20205;-77
2020/12/26 11:13:45;;;;;;;8.30;5.35;;;5.90;99.90;;;;;;5056901;28;20190;-76
2020/12/26 11:16:14;;;;;;;7.82;4.97;;;5.80;99.90;;;;;;5068873;28;20218;-76
2020/12/26 11:18:42;;;;;;;10.07;4.35;;;5.90;99.90;;;;;;5068650;28;20565;-77
2020/12/26 11:21:09;;;;;;;9.27;4.82;;;5.90;99.90;;;;;;5072548;28;20683;-76
2020/12/26 11:23:35;;;;;;;9.05;4.40;;;5.80;99.90;;;;;;5073248;28;20708;-77
2020/12/26 11:26:02;;;;;;;6.65;4.25;;;5.90;99.90;;;;;;5078725;28;20202;-79
2020/12/26 11:28:29;;;;;;;7.35;4.38;;;6.10;99.90;;;;;;5077513;28;20221;-80
2020/12/26 11:30:55;;;;;;;6.65;4.63;;;6.00;99.90;;;;;;5084112;28;20280;-81
2020/12/26 11:33:23;;;;;;;12.18;4.32;;;5.90;99.90;;;;;;5084431;28;20194;-82
2020/12/26 11:35:50;;;;;;;9.15;4.55;;;6.10;99.90;;;;;;5080271;28;20210;-81
2020/12/26 11:38:16;;;;;;;6.78;4.43;;;6.10;99.90;;;;;;5084138;28;20209;-81
2020/12/26 11:40:43;;;;;;;6.05;4.00;;;6.20;99.90;;;;;;5084056;28;20201;-81
2020/12/26 11:43:10;;;;;;;9.13;4.55;;;6.10;99.90;;;;;;5080973;28;20655;-79
2020/12/26 11:45:36;;;;;;;8.32;4.90;;;6.20;99.90;;;;;;5072716;28;20271;-81
2020/12/26 11:48:03;;;;;;;7.38;4.47;;;6.20;99.90;;;;;;5060752;28;20226;-79
2020/12/26 11:50:31;;;;;;;8.27;5.20;;;5.90;99.90;;;;;;5080249;28;20229;-80
2020/12/26 11:52:57;;;;;;;8.82;4.97;;;5.80;99.90;;;;;;5079435;28;20208;-79
2020/12/26 11:55:24;;;;;;;8.38;4.75;;;5.80;99.90;;;;;;5076910;28;20205;-80
2020/12/26 11:57:50;;;;;;;7.85;4.00;;;6.00;99.90;;;;;;5077241;28;20233;-80
2020/12/26 12:00:17;;;;;;;8.63;5.05;;;5.70;99.90;;;;;;5077502;28;20576;-80
2020/12/26 12:02:43;;;;;;;9.18;4.20;;;5.60;99.90;;;;;;5076602;28;20316;-81
2020/12/26 12:05:10;;;;;;;9.02;4.72;;;6.00;99.90;;;;;;5075980;28;20791;-80
2020/12/26 12:07:37;;;;;;;11.40;5.00;;;5.70;99.90;;;;;;5075340;28;20229;-77
2020/12/26 12:10:04;;;;;;;10.07;4.80;;;5.80;99.90;;;;;;5073142;28;20232;-79
2020/12/26 12:12:30;;;;;;;11.20;6.95;;;6.10;99.90;;;;;;5072480;28;20236;-77
2020/12/26 12:14:57;;;;;;;8.75;4.85;;;5.80;99.90;;;;;;5072463;28;20213;-76
2020/12/26 12:17:23;;;;;;;9.70;5.00;;;6.00;99.90;;;;;;5071934;28;20765;-76
2020/12/26 12:19:50;;;;;;;10.80;5.40;;;5.90;99.90;;;;;;5058762;28;20247;-76
2020/12/26 12:22:16;;;;;;;9.93;5.45;;;6.00;99.90;;;;;;5072003;28;20221;-76
2020/12/26 12:24:44;;;;;;;10.55;6.03;;;6.20;99.90;;;;;;5071992;28;20221;-76
2020/12/26 12:27:10;;;;;;;9.00;5.10;;;6.00;99.90;;;;;;5072296;28;20237;-76
2020/12/26 12:29:37;;;;;;;11.68;6.07;;;6.00;99.90;;;;;;5071533;28;20206;-77
2020/12/26 12:32:03;;;;;;;8.77;4.85;;;6.00;99.90;;;;;;5071558;28;20209;-77
2020/12/26 12:34:30;;;;;;;11.23;6.25;;;5.90;99.90;;;;;;5072388;28;20233;-77
2020/12/26 12:36:57;;;;;;;23.13;5.63;;;6.10;99.90;;;;;;5069247;28;20229;-77
2020/12/26 12:39:23;;;;;;;7.38;4.80;;;6.10;99.90;;;;;;5071476;28;20570;-77
2020/12/26 12:41:55;;;;;;;9.18;4.85;;;6.30;99.90;;;;;;5071217;28;20213;-77
2020/12/26 12:44:21;;;;;;;8.05;5.32;;;6.20;99.90;;;;;;5071617;28;20228;-77
2020/12/26 12:46:48;;;;;;;9.27;4.57;;;6.30;99.90;;;;;;5071669;28;20564;-77
2020/12/26 12:49:14;;;;;;;6.90;4.20;;;6.10;99.90;;;;;;5071934;28;20541;-78
2020/12/26 12:51:41;;;;;;;8.93;4.30;;;6.00;99.90;;;;;;5071482;28;20210;-81
2020/12/26 12:54:08;;;;;;;7.30;5.00;;;6.30;99.90;;;;;;5072088;28;20206;-77
2020/12/26 12:56:35;;;;;;;7.50;5.38;;;6.00;99.90;;;;;;5073468;28;20233;-77